createdAt,value
2022-12-01T00:05:05.539Z,88.87
2022-12-01T00:08:09.911Z,90.18
2022-12-01T00:11:11.824Z,88.18
2022-12-01T00:14:16.069Z,96.47
2022-12-01T00:17:19.924Z,93.88
2022-12-01T00:23:29.252Z,90.03
2022-12-01T00:26:32.991Z,89.22
2022-12-01T00:29:36.850Z,88.03
2022-12-01T00:32:41.243Z,77.78
2022-12-01T00:35:46.943Z,75.78
2022-12-01T00:38:54.064Z,80.47
2022-12-01T00:41:57.828Z,76.78
2022-12-01T00:45:01.563Z,87.70
2022-12-01T00:48:05.613Z,70.85
2022-12-01T00:51:11.513Z,71.00
2022-12-01T00:54:15.200Z,76.97
2022-12-01T00:57:18.892Z,73.90
2022-12-01T01:00:23.085Z,71.40
2022-12-01T01:06:32.316Z,83.95
2022-12-01T01:09:36.205Z,85.53
2022-12-01T01:15:43.649Z,82.25
2022-12-01T01:18:47.842Z,82.88
2022-12-01T01:21:53.535Z,92.47
2022-12-01T01:24:57.270Z,101.20
2022-12-01T01:28:01.012Z,84.18
2022-12-01T01:31:07.747Z,91.53
2022-12-01T01:34:11.501Z,92.25
2022-12-01T01:37:17.136Z,94.15
2022-12-01T01:40:20.962Z,98.72
2022-12-01T01:43:41.980Z,85.45
2022-12-01T01:46:45.735Z,84.85
2022-12-01T01:49:50.377Z,93.35
2022-12-01T01:53:02.054Z,84.07
2022-12-01T01:56:07.574Z,87.22
2022-12-01T01:59:17.386Z,91.35
2022-12-01T02:02:21.150Z,86.80
2022-12-01T02:05:28.229Z,88.80
2022-12-01T02:08:37.454Z,82.43
2022-12-01T02:12:10.739Z,90.32
2022-12-01T02:15:23.931Z,97.75
2022-12-01T02:18:35.099Z,106.18
2022-12-01T02:21:56.687Z,96.10
2022-12-01T02:25:24.054Z,100.50
2022-12-01T02:28:48.185Z,105.53
2022-12-01T02:35:09.984Z,100.75
2022-12-01T02:38:19.662Z,92.43
2022-12-01T02:41:30.151Z,94.15
2022-12-01T02:44:37.936Z,87.90
2022-12-01T02:47:46.429Z,98.72
2022-12-01T02:50:51.289Z,90.30
2022-12-01T02:53:56.535Z,95.90
2022-12-01T02:57:00.510Z,85.18
2022-12-01T03:03:28.193Z,83.47
2022-12-01T03:06:43.601Z,83.85
2022-12-01T03:09:57.344Z,78.90
2022-12-01T03:13:09.257Z,79.43
2022-12-01T03:16:17.879Z,75.15
2022-12-01T03:19:33.178Z,78.30
2022-12-01T03:22:41.393Z,72.30
2022-12-01T03:25:49.375Z,70.20
2022-12-01T03:28:57.454Z,80.65
2022-12-01T03:32:05.251Z,72.10
2022-12-01T03:35:17.470Z,74.78
2022-12-01T03:38:25.586Z,82.47
2022-12-01T03:41:34.720Z,68.15
2022-12-01T03:44:44.367Z,74.35
2022-12-01T03:47:48.688Z,74.20
2022-12-01T03:51:04.524Z,82.55
2022-12-01T03:54:13.790Z,86.97
2022-12-01T03:57:20.465Z,86.70
2022-12-01T04:00:24.999Z,76.38
2022-12-01T04:03:28.719Z,76.85
2022-12-01T04:06:34.490Z,81.25
2022-12-01T04:09:38.175Z,83.13
2022-12-01T04:12:42.000Z,81.88
2022-12-01T04:15:46.078Z,89.30
2022-12-01T04:18:49.807Z,86.03
2022-12-01T04:21:55.504Z,85.65
2022-12-01T04:24:59.226Z,87.40
2022-12-01T04:28:02.903Z,87.50
2022-12-01T04:31:07.094Z,91.57
2022-12-01T04:34:12.005Z,86.65
2022-12-01T04:37:18.046Z,87.45
2022-12-01T04:40:21.958Z,83.65
2022-12-01T04:46:29.338Z,90.47
2022-12-01T04:49:34.343Z,97.53
2022-12-01T04:52:40.629Z,92.80
2022-12-01T04:55:44.431Z,95.60
2022-12-01T04:58:48.486Z,105.07
2022-12-01T05:01:52.468Z,90.80
2022-12-01T05:04:56.244Z,96.15
2022-12-01T05:08:02.010Z,96.22
2022-12-01T05:11:07.149Z,102.40
2022-12-01T05:14:10.853Z,94.97
2022-12-01T05:17:14.569Z,89.32
2022-12-01T05:20:34.719Z,105.07
2022-12-01T05:23:40.653Z,97.25
2022-12-01T05:26:45.595Z,99.43
2022-12-01T05:29:49.716Z,107.40
2022-12-01T05:32:53.683Z,104.13
2022-12-01T05:35:57.532Z,90.05
2022-12-01T05:39:03.168Z,100.45
2022-12-01T05:42:07.092Z,104.20
2022-12-01T05:45:11.857Z,110.88
2022-12-01T05:48:15.800Z,108.97
2022-12-01T05:51:19.632Z,115.93
2022-12-01T05:54:25.300Z,123.47
2022-12-01T05:57:29.036Z,121.45
2022-12-01T06:00:32.721Z,115.25
2022-12-01T06:03:36.499Z,111.05
2022-12-01T06:06:40.204Z,121.38
2022-12-01T06:09:46.447Z,110.30
2022-12-01T06:12:50.483Z,120.93
2022-12-01T06:19:01.892Z,128.38
2022-12-01T06:22:06.113Z,105.93
2022-12-01T06:25:12.555Z,106.15
2022-12-01T06:28:17.455Z,96.40
2022-12-01T06:31:21.218Z,96.65
2022-12-01T06:37:29.121Z,101.80
2022-12-01T06:40:34.890Z,95.07
2022-12-01T06:43:39.050Z,88.85
2022-12-01T06:46:43.086Z,91.85
2022-12-01T06:49:47.037Z,104.13
2022-12-01T06:52:52.125Z,86.45
2022-12-01T06:56:01.304Z,99.88
2022-12-01T06:59:05.322Z,94.22
2022-12-01T07:02:11.903Z,93.70
2022-12-01T07:05:16.257Z,85.45
2022-12-01T07:08:20.444Z,94.65
2022-12-01T07:11:26.088Z,84.43
2022-12-01T07:14:31.025Z,87.55
2022-12-01T07:17:35.258Z,94.22
2022-12-01T07:20:39.095Z,83.63
2022-12-01T07:26:48.716Z,93.07
2022-12-01T07:29:52.450Z,96.05
2022-12-01T07:32:56.232Z,87.75
2022-12-01T07:36:00.732Z,86.95
2022-12-01T07:39:06.991Z,91.63
2022-12-01T07:42:12.654Z,83.30
2022-12-01T07:45:16.559Z,79.72
2022-12-01T07:51:25.151Z,85.25
2022-12-01T07:54:28.869Z,95.85
2022-12-01T07:57:34.629Z,88.88
2022-12-01T08:00:38.331Z,76.53
2022-12-01T08:03:45.558Z,92.88
2022-12-01T08:06:49.280Z,93.15
2022-12-01T08:09:56.052Z,82.72
2022-12-01T08:13:01.750Z,80.72
2022-12-01T08:16:06.558Z,80.55
2022-12-01T08:19:12.220Z,78.88
2022-12-01T08:22:15.996Z,83.28
2022-12-01T08:25:19.892Z,80.43
2022-12-01T08:28:25.574Z,85.30
2022-12-01T08:31:31.256Z,86.57
2022-12-01T08:34:37.942Z,87.82
2022-12-01T08:37:41.645Z,82.07
2022-12-01T08:40:45.590Z,96.07
2022-12-01T08:47:04.472Z,80.18
2022-12-01T08:50:10.409Z,81.00
2022-12-01T08:53:14.152Z,87.78
2022-12-01T08:56:19.644Z,95.15
2022-12-01T08:59:25.386Z,83.78
2022-12-01T09:02:29.376Z,83.88
2022-12-01T09:05:33.191Z,89.80
2022-12-01T09:08:38.145Z,95.35
2022-12-01T09:11:43.090Z,85.10
2022-12-01T09:14:49.461Z,92.10
2022-12-01T09:17:53.227Z,89.90
2022-12-01T09:20:57.980Z,91.28
2022-12-01T09:24:02.701Z,88.78
2022-12-01T09:27:07.097Z,89.43
2022-12-01T09:30:14.127Z,82.50
2022-12-01T09:33:18.098Z,96.45
2022-12-01T09:39:25.614Z,98.67
2022-12-01T09:45:46.876Z,88.15
2022-12-01T09:48:53.144Z,83.47
2022-12-01T09:51:56.949Z,86.68
2022-12-01T09:55:01.645Z,81.90
2022-12-01T09:58:06.599Z,91.03
2022-12-01T10:01:20.671Z,85.80
2022-12-01T10:04:30.654Z,94.55
2022-12-01T10:07:39.326Z,82.13
2022-12-01T10:10:47.875Z,89.80
2022-12-01T10:13:51.851Z,85.25
2022-12-01T10:17:06.562Z,79.28
2022-12-01T10:20:17.162Z,83.65
2022-12-01T10:23:45.835Z,73.93
2022-12-01T10:26:57.112Z,81.60
2022-12-01T10:30:06.372Z,79.78
2022-12-01T10:33:22.560Z,80.68
2022-12-01T10:36:27.520Z,67.40
2022-12-01T10:39:36.887Z,75.90
2022-12-01T10:42:43.961Z,74.30
2022-12-01T10:45:47.791Z,82.15
2022-12-01T10:48:58.865Z,77.72
2022-12-01T10:52:02.728Z,71.07
2022-12-01T10:55:27.703Z,76.50
2022-12-01T10:58:34.016Z,73.15
2022-12-01T11:01:38.423Z,75.72
2022-12-01T11:04:46.847Z,74.97
2022-12-01T11:07:51.621Z,75.03
2022-12-01T11:10:55.802Z,70.38
2022-12-01T11:14:02.662Z,70.97
2022-12-01T11:17:34.567Z,72.25
2022-12-01T11:20:42.113Z,77.53
2022-12-01T11:23:48.470Z,74.43
2022-12-01T11:26:52.199Z,82.25
2022-12-01T11:29:59.086Z,79.47
2022-12-01T11:33:05.719Z,74.35
2022-12-01T11:36:16.128Z,73.63
2022-12-01T11:39:27.518Z,75.13
2022-12-01T11:42:33.814Z,73.90
2022-12-01T11:45:41.540Z,68.05
2022-12-01T11:48:59.623Z,76.30
2022-12-01T11:52:19.034Z,79.97
2022-12-01T11:55:25.295Z,71.15
2022-12-01T11:58:29.023Z,60.53
2022-12-01T12:01:46.689Z,68.80
2022-12-01T12:05:27.972Z,64.25
2022-12-01T12:08:47.251Z,62.03
2022-12-01T12:11:58.043Z,63.53
2022-12-01T12:15:13.143Z,63.53
2022-12-01T12:18:42.717Z,61.70
2022-12-01T12:21:57.131Z,60.33
2022-12-01T12:25:22.340Z,60.72
2022-12-01T12:28:43.127Z,60.47
2022-12-01T12:32:01.877Z,72.20
2022-12-01T12:35:15.920Z,58.65
2022-12-01T12:38:44.173Z,70.50
2022-12-01T12:41:54.732Z,58.70
2022-12-01T12:45:05.619Z,59.85
2022-12-01T12:48:24.124Z,65.75
2022-12-01T12:51:34.370Z,54.80
2022-12-01T12:54:46.474Z,60.40
2022-12-01T12:57:56.550Z,65.43
2022-12-01T13:01:05.603Z,63.25
2022-12-01T13:04:15.155Z,61.83
2022-12-01T13:07:33.352Z,66.22
2022-12-01T13:10:42.059Z,67.63
2022-12-01T13:13:57.442Z,64.65
2022-12-01T13:17:09.404Z,61.22
2022-12-01T13:20:17.629Z,57.25
2022-12-01T13:23:22.069Z,60.70
2022-12-01T13:26:25.878Z,59.75
2022-12-01T13:29:35.373Z,67.05
2022-12-01T13:32:42.502Z,59.60
2022-12-01T13:35:46.371Z,63.47
2022-12-01T13:42:03.958Z,54.20
2022-12-01T13:45:19.761Z,62.40
2022-12-01T13:48:32.223Z,61.67
2022-12-01T13:52:05.918Z,59.30
2022-12-01T13:55:27.244Z,57.90
2022-12-01T13:58:48.384Z,60.80
2022-12-01T14:02:14.883Z,57.25
2022-12-01T14:05:47.107Z,54.80
2022-12-01T14:08:51.664Z,56.03
2022-12-01T14:11:58.665Z,64.32
2022-12-01T14:15:05.540Z,59.50
2022-12-01T14:18:32.886Z,60.15
2022-12-01T14:21:44.180Z,69.88
2022-12-01T14:24:54.191Z,61.60
2022-12-01T14:28:00.412Z,69.88
2022-12-01T14:31:07.045Z,73.20
2022-12-01T14:34:19.300Z,68.45
2022-12-01T14:37:27.244Z,71.47
2022-12-01T14:40:38.767Z,77.80
2022-12-01T14:43:57.741Z,77.32
2022-12-01T14:47:09.125Z,87.53
2022-12-01T14:50:18.397Z,91.25
2022-12-01T14:53:28.662Z,90.65
2022-12-01T14:56:35.697Z,91.13
2022-12-01T14:59:39.862Z,89.47
2022-12-01T15:02:45.731Z,106.65
2022-12-01T15:05:50.056Z,96.50
2022-12-01T15:09:32.649Z,97.13
2022-12-01T15:12:33.742Z,98.82
2022-12-01T15:15:37.732Z,100.05
2022-12-01T15:21:45.196Z,80.70
2022-12-01T15:24:49.180Z,105.82
2022-12-01T15:28:12.419Z,101.15
2022-12-01T15:31:16.396Z,97.32
2022-12-01T15:34:23.881Z,122.05
2022-12-01T15:37:30.008Z,116.53
2022-12-01T15:44:02.906Z,109.32
2022-12-01T15:47:31.906Z,110.43
2022-12-01T15:50:42.922Z,116.53
2022-12-01T15:56:59.784Z,119.57
2022-12-01T16:00:06.554Z,108.35
2022-12-01T16:03:16.938Z,115.40
2022-12-01T16:06:21.928Z,104.55
2022-12-01T16:09:30.138Z,116.22
2022-12-01T16:12:36.179Z,115.53
2022-12-01T16:15:46.517Z,112.13
2022-12-01T16:18:55.405Z,109.45
2022-12-01T16:22:04.295Z,108.40
2022-12-01T16:25:18.200Z,103.30
2022-12-01T16:28:24.437Z,106.95
2022-12-01T16:31:30.154Z,104.55
2022-12-01T16:34:45.859Z,92.85
2022-12-01T16:37:50.344Z,111.90
2022-12-01T16:47:26.046Z,97.60
2022-12-01T16:50:29.824Z,108.68
2022-12-01T16:53:34.330Z,107.65
2022-12-01T16:56:38.193Z,112.28
2022-12-01T17:02:47.840Z,106.73
2022-12-01T17:05:52.399Z,111.93
2022-12-01T17:08:56.134Z,110.82
2022-12-01T17:11:59.918Z,106.20
2022-12-01T17:15:03.725Z,112.15
2022-12-01T17:18:09.677Z,118.75
2022-12-01T17:21:13.502Z,110.68
2022-12-01T17:24:19.241Z,121.88
2022-12-01T17:27:23.987Z,115.53
2022-12-01T17:30:27.919Z,128.52
2022-12-01T17:33:37.575Z,124.60
2022-12-01T17:36:44.133Z,123.00
2022-12-01T17:39:48.180Z,116.97
2022-12-01T17:42:52.344Z,105.97
2022-12-01T17:45:56.833Z,116.60
2022-12-01T17:49:07.945Z,121.13
2022-12-01T17:52:11.979Z,110.45
2022-12-01T17:55:16.069Z,112.75
2022-12-01T17:58:21.031Z,110.47
2022-12-01T18:01:29.943Z,114.90
2022-12-01T18:04:45.525Z,115.80
2022-12-01T18:07:49.861Z,105.13
2022-12-01T18:10:54.095Z,109.78
2022-12-01T18:13:57.825Z,114.40
2022-12-01T18:17:01.615Z,106.10
2022-12-01T18:20:08.955Z,102.15
2022-12-01T18:23:13.799Z,104.15
2022-12-01T18:26:17.661Z,105.80
2022-12-01T18:32:29.008Z,101.32
2022-12-01T18:35:34.591Z,104.55
2022-12-01T18:38:42.427Z,102.70
2022-12-01T18:41:46.143Z,111.45
2022-12-01T18:44:50.045Z,106.35
2022-12-01T18:47:53.946Z,106.95
2022-12-01T18:51:03.246Z,107.68
2022-12-01T18:54:08.954Z,105.95
2022-12-01T18:57:14.012Z,102.55
2022-12-01T19:00:24.801Z,96.70
2022-12-01T19:03:30.994Z,101.57
2022-12-01T19:06:38.648Z,98.78
2022-12-01T19:09:42.548Z,89.72
2022-12-01T19:12:47.255Z,100.90
2022-12-01T19:18:55.499Z,93.05
2022-12-01T19:22:01.429Z,93.32
2022-12-01T19:25:05.722Z,98.70
2022-12-01T19:28:11.462Z,104.35
2022-12-01T19:34:19.851Z,101.25
2022-12-01T19:37:25.657Z,100.00
2022-12-01T19:40:31.128Z,110.40
2022-12-01T19:43:35.817Z,110.45
2022-12-01T19:46:39.696Z,112.28
2022-12-01T19:52:49.719Z,108.10
2022-12-01T19:55:53.421Z,105.45
2022-12-01T19:58:58.099Z,116.05
2022-12-01T20:02:02.379Z,103.60
2022-12-01T20:05:06.999Z,110.88
2022-12-01T20:08:13.340Z,100.63
2022-12-01T20:11:17.350Z,112.63
2022-12-01T20:14:21.087Z,107.70
2022-12-01T20:17:24.823Z,100.10
2022-12-01T20:20:28.609Z,102.63
2022-12-01T20:23:35.003Z,102.35
2022-12-01T20:26:41.012Z,95.15
2022-12-01T20:29:44.724Z,102.60
2022-12-01T20:32:48.480Z,103.47
2022-12-01T20:35:52.467Z,93.32
2022-12-01T20:38:58.160Z,103.13
2022-12-01T20:42:02.066Z,108.53
2022-12-01T20:48:09.984Z,96.90
2022-12-01T20:51:15.128Z,94.95
2022-12-01T20:54:29.743Z,97.32
2022-12-01T20:57:34.112Z,97.22
2022-12-01T21:03:44.589Z,93.95
2022-12-01T21:06:49.397Z,90.38
2022-12-01T21:09:55.060Z,92.10
2022-12-01T21:13:14.716Z,89.65
2022-12-01T21:16:23.679Z,100.05
2022-12-01T21:19:32.654Z,89.80
2022-12-01T21:22:37.504Z,86.53
2022-12-01T21:25:44.400Z,87.28
2022-12-01T21:28:48.111Z,85.55
2022-12-01T21:31:54.401Z,76.40
2022-12-01T21:35:02.981Z,83.20
2022-12-01T21:38:18.997Z,79.13
2022-12-01T21:41:28.827Z,74.25
2022-12-01T21:44:38.828Z,80.90
2022-12-01T21:47:43.266Z,76.88
2022-12-01T21:50:53.626Z,76.93
2022-12-01T21:53:57.991Z,71.05
2022-12-01T22:00:27.165Z,70.50
2022-12-01T22:03:35.260Z,80.72
2022-12-01T22:06:41.027Z,66.13
2022-12-01T22:09:44.741Z,69.85
2022-12-01T22:12:50.439Z,68.47
2022-12-01T22:15:55.558Z,72.20
2022-12-01T22:19:00.918Z,70.35
2022-12-01T22:22:22.552Z,70.07
2022-12-01T22:25:28.881Z,69.60
2022-12-01T22:28:34.774Z,66.82
2022-12-01T22:31:38.484Z,64.35
2022-12-01T22:34:46.867Z,68.70
2022-12-01T22:37:53.054Z,64.07
2022-12-01T22:41:02.029Z,64.78
2022-12-01T22:44:14.654Z,65.40
2022-12-01T22:47:18.327Z,67.35
2022-12-01T22:50:28.193Z,59.35
2022-12-01T22:53:32.709Z,67.00
2022-12-01T22:56:40.786Z,69.72
2022-12-01T22:59:47.407Z,65.22
2022-12-01T23:02:52.473Z,69.50
2022-12-01T23:05:58.017Z,69.82
2022-12-01T23:09:01.689Z,71.95
2022-12-01T23:12:21.526Z,61.90
2022-12-01T23:15:32.944Z,78.18
2022-12-01T23:18:36.698Z,66.22
2022-12-01T23:21:40.527Z,65.22
2022-12-01T23:24:44.619Z,71.28
2022-12-01T23:27:50.295Z,69.53
2022-12-01T23:30:58.668Z,69.18
2022-12-01T23:34:02.913Z,75.90
2022-12-01T23:37:17.885Z,54.83
2022-12-01T23:40:24.652Z,60.83
2022-12-01T23:43:31.166Z,65.15
2022-12-01T23:46:37.904Z,60.25
2022-12-01T23:49:41.680Z,62.40
2022-12-01T23:52:45.436Z,49.85
2022-12-01T23:55:49.135Z,53.50
2022-12-01T23:58:53.979Z,49.67
